61°F Temp
39°F Dewpoint
45% Humidity
Temperature
14 MPH
23 KM/H
12 KTS
320°
North West

Wind Speed
Partly Cloudy
Conditions
Pressure 1022.72 (hPa) - 30.2 (in)
Visibility 9.9 (mi) - 16.0 (km)

Current Conditions
KSJC
Location 9(mi)
Metar :KSJC 252053Z 32012KT 10SM FEW044 16/04 A3020 RMK AO2 SLP225 T01560044 58015
Wed 25th November 12:53 pm

Airport
  Metar Aviation API Data Provided by https://www.checkwx.com/ PHP scripts by weather34.com ©2020